sensor_id;sensor_type;location;lat;lon;timestamp;pressure;altitude;pressure_sealevel;temperature;humidity
64628;BME280;59036;50.960;0.314;2022-11-15T00:00:45;98931.50;;;7.22;100.00
64628;BME280;59036;50.960;0.314;2022-11-15T00:03:14;98931.25;;;7.43;100.00
64628;BME280;59036;50.960;0.314;2022-11-15T00:05:41;98930.25;;;7.28;100.00
64628;BME280;59036;50.960;0.314;2022-11-15T00:08:08;98926.59;;;6.74;100.00
64628;BME280;59036;50.960;0.314;2022-11-15T00:10:36;98925.33;;;6.40;100.00
64628;BME280;59036;50.960;0.314;2022-11-15T00:13:05;98923.69;;;6.19;100.00
64628;BME280;59036;50.960;0.314;2022-11-15T00:15:35;98921.83;;;6.10;100.00
64628;BME280;59036;50.960;0.314;2022-11-15T00:18:02;98916.12;;;5.95;100.00
64628;BME280;59036;50.960;0.314;2022-11-15T00:20:29;98911.87;;;6.22;100.00
64628;BME280;59036;50.960;0.314;2022-11-15T00:22:56;98909.71;;;6.20;100.00
64628;BME280;59036;50.960;0.314;2022-11-15T00:25:23;98906.14;;;5.97;100.00
64628;BME280;59036;50.960;0.314;2022-11-15T00:27:54;98904.60;;;5.81;100.00
64628;BME280;59036;50.960;0.314;2022-11-15T00:30:21;98900.28;;;5.75;100.00
64628;BME280;59036;50.960;0.314;2022-11-15T00:32:49;98896.07;;;5.87;100.00
64628;BME280;59036;50.960;0.314;2022-11-15T00:35:16;98891.51;;;6.06;100.00
64628;BME280;59036;50.960;0.314;2022-11-15T00:37:44;98888.82;;;5.95;100.00
64628;BME280;59036;50.960;0.314;2022-11-15T00:40:11;98883.64;;;6.34;100.00
64628;BME280;59036;50.960;0.314;2022-11-15T00:42:39;98877.98;;;6.29;100.00
64628;BME280;59036;50.960;0.314;2022-11-15T00:45:07;98866.80;;;6.22;100.00
64628;BME280;59036;50.960;0.314;2022-11-15T00:47:34;98860.62;;;6.31;100.00
64628;BME280;59036;50.960;0.314;2022-11-15T00:50:01;98857.86;;;6.18;100.00
64628;BME280;59036;50.960;0.314;2022-11-15T00:52:28;98852.75;;;6.24;100.00
64628;BME280;59036;50.960;0.314;2022-11-15T00:54:55;98850.20;;;5.95;100.00
64628;BME280;59036;50.960;0.314;2022-11-15T00:57:22;98844.68;;;6.27;100.00
64628;BME280;59036;50.960;0.314;2022-11-15T00:59:55;98846.64;;;6.19;100.00
64628;BME280;59036;50.960;0.314;2022-11-15T01:02:22;98842.28;;;5.95;100.00
64628;BME280;59036;50.960;0.314;2022-11-15T01:04:49;98831.34;;;6.42;100.00
64628;BME280;59036;50.960;0.314;2022-11-15T01:07:16;98827.62;;;6.17;100.00
64628;BME280;59036;50.960;0.314;2022-11-15T01:09:43;98822.92;;;6.07;100.00
64628;BME280;59036;50.960;0.314;2022-11-15T01:12:10;98820.39;;;6.26;100.00
64628;BME280;59036;50.960;0.314;2022-11-15T01:14:38;98818.22;;;5.85;100.00
64628;BME280;59036;50.960;0.314;2022-11-15T01:17:05;98811.56;;;6.00;100.00
64628;BME280;59036;50.960;0.314;2022-11-15T01:19:32;98807.31;;;6.29;100.00
64628;BME280;59036;50.960;0.314;2022-11-15T01:21:59;98805.09;;;6.18;100.00
64628;BME280;59036;50.960;0.314;2022-11-15T01:24:26;98798.06;;;6.07;100.00
64628;BME280;59036;50.960;0.314;2022-11-15T01:26:53;98793.13;;;5.94;100.00
64628;BME280;59036;50.960;0.314;2022-11-15T01:29:21;98787.80;;;6.76;100.00
64628;BME280;59036;50.960;0.314;2022-11-15T01:31:48;98785.47;;;6.08;100.00
64628;BME280;59036;50.960;0.314;2022-11-15T01:34:20;98786.09;;;6.30;100.00
64628;BME280;59036;50.960;0.314;2022-11-15T01:36:47;98782.03;;;6.12;100.00
64628;BME280;59036;50.960;0.314;2022-11-15T01:39:14;98778.04;;;6.29;100.00
64628;BME280;59036;50.960;0.314;2022-11-15T01:41:41;98773.75;;;6.54;100.00
64628;BME280;59036;50.960;0.314;2022-11-15T01:44:43;98763.29;;;6.55;100.00
64628;BME280;59036;50.960;0.314;2022-11-15T01:47:13;98752.64;;;6.65;100.00
64628;BME280;59036;50.960;0.314;2022-11-15T01:49:49;98755.96;;;6.56;100.00
64628;BME280;59036;50.960;0.314;2022-11-15T01:52:19;98750.57;;;6.38;100.00
64628;BME280;59036;50.960;0.314;2022-11-15T01:54:51;98743.01;;;6.47;100.00
64628;BME280;59036;50.960;0.314;2022-11-15T01:57:19;98740.63;;;6.51;100.00
64628;BME280;59036;50.960;0.314;2022-11-15T01:59:47;98739.91;;;6.31;100.00
64628;BME280;59036;50.960;0.314;2022-11-15T02:02:15;98727.47;;;6.50;100.00
64628;BME280;59036;50.960;0.314;2022-11-15T02:04:43;98720.93;;;6.47;100.00
64628;BME280;59036;50.960;0.314;2022-11-15T02:07:14;98723.44;;;6.40;100.00
64628;BME280;59036;50.960;0.314;2022-11-15T02:09:42;98720.36;;;6.41;100.00
64628;BME280;59036;50.960;0.314;2022-11-15T02:12:10;98720.32;;;6.53;100.00
64628;BME280;59036;50.960;0.314;2022-11-15T02:14:40;98719.52;;;6.56;100.00
64628;BME280;59036;50.960;0.314;2022-11-15T02:17:29;98709.44;;;6.57;100.00
64628;BME280;59036;50.960;0.314;2022-11-15T02:20:29;98712.22;;;6.80;100.00
64628;BME280;59036;50.960;0.314;2022-11-15T02:23:14;98701.99;;;6.87;100.00
64628;BME280;59036;50.960;0.314;2022-11-15T02:25:57;98693.24;;;6.74;100.00
64628;BME280;59036;50.960;0.314;2022-11-15T02:28:45;98685.93;;;6.84;100.00
64628;BME280;59036;50.960;0.314;2022-11-15T02:31:23;98678.55;;;6.71;100.00
64628;BME280;59036;50.960;0.314;2022-11-15T02:33:59;98676.34;;;6.84;100.00
64628;BME280;59036;50.960;0.314;2022-11-15T02:36:35;98675.80;;;7.06;100.00
64628;BME280;59036;50.960;0.314;2022-11-15T02:39:10;98658.74;;;7.11;100.00
64628;BME280;59036;50.960;0.314;2022-11-15T02:41:48;98660.69;;;6.86;100.00
64628;BME280;59036;50.960;0.314;2022-11-15T02:44:23;98658.20;;;7.10;100.00
64628;BME280;59036;50.960;0.314;2022-11-15T02:46:55;98650.11;;;6.96;100.00
64628;BME280;59036;50.960;0.314;2022-11-15T02:49:25;98635.27;;;7.01;100.00
64628;BME280;59036;50.960;0.314;2022-11-15T02:51:55;98633.96;;;7.00;100.00
64628;BME280;59036;50.960;0.314;2022-11-15T02:54:24;98634.64;;;7.19;100.00
64628;BME280;59036;50.960;0.314;2022-11-15T02:56:53;98632.26;;;7.13;100.00
64628;BME280;59036;50.960;0.314;2022-11-15T02:59:54;98628.40;;;7.31;100.00
64628;BME280;59036;50.960;0.314;2022-11-15T03:02:38;98621.54;;;7.42;100.00
64628;BME280;59036;50.960;0.314;2022-11-15T03:05:14;98625.03;;;7.51;100.00
64628;BME280;59036;50.960;0.314;2022-11-15T03:07:50;98624.18;;;7.45;100.00
64628;BME280;59036;50.960;0.314;2022-11-15T03:10:25;98609.12;;;7.34;100.00
64628;BME280;59036;50.960;0.314;2022-11-15T03:12:56;98609.67;;;7.33;100.00
64628;BME280;59036;50.960;0.314;2022-11-15T03:15:27;98611.58;;;7.75;100.00
64628;BME280;59036;50.960;0.314;2022-11-15T03:18:00;98612.53;;;7.46;100.00
64628;BME280;59036;50.960;0.314;2022-11-15T03:20:28;98596.68;;;7.90;100.00
64628;BME280;59036;50.960;0.314;2022-11-15T03:23:01;98598.35;;;7.53;100.00
64628;BME280;59036;50.960;0.314;2022-11-15T03:25:32;98597.78;;;7.67;100.00
64628;BME280;59036;50.960;0.314;2022-11-15T03:28:03;98593.03;;;7.46;100.00
64628;BME280;59036;50.960;0.314;2022-11-15T03:30:33;98591.86;;;7.59;100.00
64628;BME280;59036;50.960;0.314;2022-11-15T03:33:02;98597.46;;;7.41;100.00
64628;BME280;59036;50.960;0.314;2022-11-15T03:35:33;98595.61;;;7.57;100.00
64628;BME280;59036;50.960;0.314;2022-11-15T03:38:11;98590.15;;;7.66;100.00
64628;BME280;59036;50.960;0.314;2022-11-15T03:40:45;98585.90;;;7.63;100.00
64628;BME280;59036;50.960;0.314;2022-11-15T03:43:19;98589.42;;;7.53;100.00
64628;BME280;59036;50.960;0.314;2022-11-15T03:45:53;98577.83;;;7.70;100.00
64628;BME280;59036;50.960;0.314;2022-11-15T03:48:25;98578.87;;;7.60;100.00
64628;BME280;59036;50.960;0.314;2022-11-15T03:50:55;98571.51;;;7.69;100.00
64628;BME280;59036;50.960;0.314;2022-11-15T03:53:22;98574.89;;;7.77;100.00
64628;BME280;59036;50.960;0.314;2022-11-15T03:55:49;98562.67;;;8.02;100.00
64628;BME280;59036;50.960;0.314;2022-11-15T03:58:16;98564.45;;;8.04;100.00
64628;BME280;59036;50.960;0.314;2022-11-15T04:00:43;98563.24;;;7.92;100.00
64628;BME280;59036;50.960;0.314;2022-11-15T04:03:10;98560.95;;;7.93;100.00
64628;BME280;59036;50.960;0.314;2022-11-15T04:05:37;98554.90;;;8.05;100.00
64628;BME280;59036;50.960;0.314;2022-11-15T04:08:04;98554.84;;;7.92;100.00
64628;BME280;59036;50.960;0.314;2022-11-15T04:10:31;98539.31;;;7.88;100.00
64628;BME280;59036;50.960;0.314;2022-11-15T04:12:58;98527.26;;;8.32;100.00
64628;BME280;59036;50.960;0.314;2022-11-15T04:15:25;98519.64;;;7.67;100.00
64628;BME280;59036;50.960;0.314;2022-11-15T04:17:54;98509.75;;;7.81;100.00
64628;BME280;59036;50.960;0.314;2022-11-15T04:20:23;98520.06;;;7.87;100.00
64628;BME280;59036;50.960;0.314;2022-11-15T04:22:52;98515.99;;;7.93;100.00
64628;BME280;59036;50.960;0.314;2022-11-15T04:25:19;98497.05;;;7.79;100.00
64628;BME280;59036;50.960;0.314;2022-11-15T04:27:46;98497.93;;;7.84;100.00
64628;BME280;59036;50.960;0.314;2022-11-15T04:30:14;98493.76;;;7.75;100.00
64628;BME280;59036;50.960;0.314;2022-11-15T04:32:41;98490.81;;;7.93;100.00
64628;BME280;59036;50.960;0.314;2022-11-15T04:35:08;98497.34;;;7.88;100.00
64628;BME280;59036;50.960;0.314;2022-11-15T04:37:35;98489.30;;;7.98;100.00
64628;BME280;59036;50.960;0.314;2022-11-15T04:40:02;98491.53;;;7.73;100.00
64628;BME280;59036;50.960;0.314;2022-11-15T04:42:30;98491.48;;;7.71;100.00
64628;BME280;59036;50.960;0.314;2022-11-15T04:44:57;98493.15;;;7.71;100.00
64628;BME280;59036;50.960;0.314;2022-11-15T04:47:23;98486.50;;;7.71;100.00
64628;BME280;59036;50.960;0.314;2022-11-15T04:49:50;98478.97;;;7.52;100.00
64628;BME280;59036;50.960;0.314;2022-11-15T04:52:18;98482.09;;;7.69;100.00
64628;BME280;59036;50.960;0.314;2022-11-15T04:54:45;98478.27;;;7.82;100.00
64628;BME280;59036;50.960;0.314;2022-11-15T04:57:12;98464.32;;;7.63;100.00
64628;BME280;59036;50.960;0.314;2022-11-15T04:59:38;98465.89;;;7.46;100.00
64628;BME280;59036;50.960;0.314;2022-11-15T05:02:06;98455.01;;;7.52;100.00
64628;BME280;59036;50.960;0.314;2022-11-15T05:04:33;98452.81;;;7.63;100.00
64628;BME280;59036;50.960;0.314;2022-11-15T05:07:00;98456.78;;;7.97;100.00
64628;BME280;59036;50.960;0.314;2022-11-15T05:09:27;98450.60;;;7.78;100.00
64628;BME280;59036;50.960;0.314;2022-11-15T05:11:54;98439.96;;;7.64;100.00
64628;BME280;59036;50.960;0.314;2022-11-15T05:14:21;98453.83;;;7.63;100.00
64628;BME280;59036;50.960;0.314;2022-11-15T05:16:49;98444.29;;;7.53;100.00
64628;BME280;59036;50.960;0.314;2022-11-15T05:19:16;98444.98;;;7.59;100.00
64628;BME280;59036;50.960;0.314;2022-11-15T05:21:43;98441.28;;;7.61;100.00
64628;BME280;59036;50.960;0.314;2022-11-15T05:24:11;98434.41;;;7.56;100.00
64628;BME280;59036;50.960;0.314;2022-11-15T05:26:38;98427.10;;;7.52;100.00
64628;BME280;59036;50.960;0.314;2022-11-15T05:29:05;98424.41;;;7.78;100.00
64628;BME280;59036;50.960;0.314;2022-11-15T05:31:32;98415.96;;;7.51;100.00
64628;BME280;59036;50.960;0.314;2022-11-15T05:34:00;98415.17;;;7.78;100.00
64628;BME280;59036;50.960;0.314;2022-11-15T05:36:31;98407.38;;;7.40;100.00
64628;BME280;59036;50.960;0.314;2022-11-15T05:39:01;98401.09;;;7.45;100.00
64628;BME280;59036;50.960;0.314;2022-11-15T05:41:32;98379.28;;;7.72;100.00
64628;BME280;59036;50.960;0.314;2022-11-15T05:44:01;98358.14;;;7.47;100.00
64628;BME280;59036;50.960;0.314;2022-11-15T05:46:29;98371.85;;;7.28;100.00
64628;BME280;59036;50.960;0.314;2022-11-15T05:48:56;98373.34;;;7.38;100.00
64628;BME280;59036;50.960;0.314;2022-11-15T05:51:24;98371.86;;;7.41;100.00
64628;BME280;59036;50.960;0.314;2022-11-15T05:53:56;98355.90;;;7.43;100.00
64628;BME280;59036;50.960;0.314;2022-11-15T05:56:24;98360.65;;;7.43;100.00
64628;BME280;59036;50.960;0.314;2022-11-15T05:58:53;98384.28;;;7.82;100.00
64628;BME280;59036;50.960;0.314;2022-11-15T06:01:21;98381.38;;;7.60;100.00
64628;BME280;59036;50.960;0.314;2022-11-15T06:03:49;98358.56;;;7.69;100.00
64628;BME280;59036;50.960;0.314;2022-11-15T06:06:16;98380.00;;;7.70;100.00
64628;BME280;59036;50.960;0.314;2022-11-15T06:08:43;98352.15;;;7.23;100.00
64628;BME280;59036;50.960;0.314;2022-11-15T06:11:10;98378.93;;;7.77;100.00
64628;BME280;59036;50.960;0.314;2022-11-15T06:13:37;98380.87;;;7.60;100.00
64628;BME280;59036;50.960;0.314;2022-11-15T06:16:05;98383.17;;;7.37;100.00
64628;BME280;59036;50.960;0.314;2022-11-15T06:18:32;98373.79;;;7.53;100.00
64628;BME280;59036;50.960;0.314;2022-11-15T06:21:00;98350.00;;;7.77;100.00
64628;BME280;59036;50.960;0.314;2022-11-15T06:23:28;98356.17;;;7.46;100.00
64628;BME280;59036;50.960;0.314;2022-11-15T06:25:58;98353.29;;;7.59;100.00
64628;BME280;59036;50.960;0.314;2022-11-15T06:28:28;98330.82;;;7.82;100.00
64628;BME280;59036;50.960;0.314;2022-11-15T06:30:56;98337.47;;;7.90;100.00
64628;BME280;59036;50.960;0.314;2022-11-15T06:33:23;98327.01;;;7.74;100.00
64628;BME280;59036;50.960;0.314;2022-11-15T06:35:50;98354.51;;;7.45;100.00
64628;BME280;59036;50.960;0.314;2022-11-15T06:38:17;98346.16;;;7.44;100.00
64628;BME280;59036;50.960;0.314;2022-11-15T06:40:44;98338.73;;;7.34;100.00
64628;BME280;59036;50.960;0.314;2022-11-15T06:43:11;98322.05;;;7.47;100.00
64628;BME280;59036;50.960;0.314;2022-11-15T06:45:38;98318.14;;;7.84;100.00
64628;BME280;59036;50.960;0.314;2022-11-15T06:48:05;98317.04;;;7.52;100.00
64628;BME280;59036;50.960;0.314;2022-11-15T06:50:33;98316.70;;;7.35;100.00
64628;BME280;59036;50.960;0.314;2022-11-15T06:53:02;98304.55;;;7.41;100.00
64628;BME280;59036;50.960;0.314;2022-11-15T06:55:30;98311.93;;;7.57;100.00
64628;BME280;59036;50.960;0.314;2022-11-15T06:57:56;98295.58;;;7.89;100.00
64628;BME280;59036;50.960;0.314;2022-11-15T07:00:24;98303.32;;;7.76;100.00
64628;BME280;59036;50.960;0.314;2022-11-15T07:02:51;98293.68;;;7.55;100.00
64628;BME280;59036;50.960;0.314;2022-11-15T07:05:17;98297.06;;;7.51;100.00
64628;BME280;59036;50.960;0.314;2022-11-15T07:07:51;98307.68;;;7.68;100.00
64628;BME280;59036;50.960;0.314;2022-11-15T07:10:18;98308.17;;;7.81;100.00
64628;BME280;59036;50.960;0.314;2022-11-15T07:12:47;98301.09;;;7.67;100.00
64628;BME280;59036;50.960;0.314;2022-11-15T07:15:14;98283.54;;;7.33;100.00
64628;BME280;59036;50.960;0.314;2022-11-15T07:17:41;98288.07;;;7.96;100.00
64628;BME280;59036;50.960;0.314;2022-11-15T07:20:09;98289.17;;;7.95;100.00
64628;BME280;59036;50.960;0.314;2022-11-15T07:22:36;98270.00;;;7.46;100.00
64628;BME280;59036;50.960;0.314;2022-11-15T07:25:04;98272.88;;;7.47;100.00
64628;BME280;59036;50.960;0.314;2022-11-15T07:27:32;98282.87;;;7.58;100.00
64628;BME280;59036;50.960;0.314;2022-11-15T07:29:59;98277.11;;;7.67;100.00
64628;BME280;59036;50.960;0.314;2022-11-15T07:32:27;98269.62;;;7.43;100.00
64628;BME280;59036;50.960;0.314;2022-11-15T07:34:53;98265.74;;;7.45;100.00
64628;BME280;59036;50.960;0.314;2022-11-15T07:37:20;98271.31;;;7.74;100.00
64628;BME280;59036;50.960;0.314;2022-11-15T07:39:47;98264.02;;;7.61;100.00
64628;BME280;59036;50.960;0.314;2022-11-15T07:42:14;98265.53;;;7.69;100.00
64628;BME280;59036;50.960;0.314;2022-11-15T07:44:41;98254.08;;;7.80;100.00
64628;BME280;59036;50.960;0.314;2022-11-15T07:47:08;98261.19;;;7.52;100.00
64628;BME280;59036;50.960;0.314;2022-11-15T07:49:35;98252.72;;;7.27;100.00
64628;BME280;59036;50.960;0.314;2022-11-15T07:52:03;98273.45;;;7.40;100.00
64628;BME280;59036;50.960;0.314;2022-11-15T07:54:31;98245.82;;;7.30;100.00
64628;BME280;59036;50.960;0.314;2022-11-15T07:56:57;98248.59;;;7.05;100.00
64628;BME280;59036;50.960;0.314;2022-11-15T07:59:25;98249.54;;;7.23;100.00
64628;BME280;59036;50.960;0.314;2022-11-15T08:01:52;98226.46;;;7.10;100.00
64628;BME280;59036;50.960;0.314;2022-11-15T08:04:19;98247.74;;;6.82;100.00
64628;BME280;59036;50.960;0.314;2022-11-15T08:06:46;98233.39;;;7.15;100.00
64628;BME280;59036;50.960;0.314;2022-11-15T08:09:12;98239.20;;;6.85;100.00
64628;BME280;59036;50.960;0.314;2022-11-15T08:11:40;98233.37;;;6.86;100.00
64628;BME280;59036;50.960;0.314;2022-11-15T08:14:06;98230.97;;;7.13;100.00
64628;BME280;59036;50.960;0.314;2022-11-15T08:16:34;98233.68;;;7.06;100.00
64628;BME280;59036;50.960;0.314;2022-11-15T08:19:01;98235.03;;;6.89;100.00
64628;BME280;59036;50.960;0.314;2022-11-15T08:21:28;98233.36;;;6.73;100.00
64628;BME280;59036;50.960;0.314;2022-11-15T08:23:55;98216.55;;;6.91;100.00
64628;BME280;59036;50.960;0.314;2022-11-15T08:26:28;98213.57;;;7.09;100.00
64628;BME280;59036;50.960;0.314;2022-11-15T08:28:55;98228.53;;;7.08;100.00
64628;BME280;59036;50.960;0.314;2022-11-15T08:31:22;98227.59;;;6.97;100.00
64628;BME280;59036;50.960;0.314;2022-11-15T08:33:49;98208.85;;;7.06;100.00
64628;BME280;59036;50.960;0.314;2022-11-15T08:36:16;98221.91;;;7.08;100.00
64628;BME280;59036;50.960;0.314;2022-11-15T08:38:44;98215.95;;;7.19;100.00
64628;BME280;59036;50.960;0.314;2022-11-15T08:41:14;98203.88;;;7.17;100.00
64628;BME280;59036;50.960;0.314;2022-11-15T08:43:43;98216.97;;;7.13;100.00
64628;BME280;59036;50.960;0.314;2022-11-15T08:46:12;98216.19;;;7.27;100.00
64628;BME280;59036;50.960;0.314;2022-11-15T08:48:40;98198.91;;;7.19;100.00
64628;BME280;59036;50.960;0.314;2022-11-15T08:51:07;98198.46;;;7.15;100.00
64628;BME280;59036;50.960;0.314;2022-11-15T08:53:34;98196.71;;;7.09;100.00
64628;BME280;59036;50.960;0.314;2022-11-15T08:56:01;98178.10;;;7.19;100.00
64628;BME280;59036;50.960;0.314;2022-11-15T08:58:28;98175.81;;;7.07;100.00
64628;BME280;59036;50.960;0.314;2022-11-15T09:00:55;98168.54;;;7.18;100.00
64628;BME280;59036;50.960;0.314;2022-11-15T09:03:22;98171.90;;;7.29;100.00
64628;BME280;59036;50.960;0.314;2022-11-15T09:05:54;98166.11;;;7.01;100.00
64628;BME280;59036;50.960;0.314;2022-11-15T09:08:21;98160.84;;;7.01;100.00
64628;BME280;59036;50.960;0.314;2022-11-15T09:10:48;98165.54;;;7.03;100.00
64628;BME280;59036;50.960;0.314;2022-11-15T09:13:15;98149.01;;;7.28;100.00
64628;BME280;59036;50.960;0.314;2022-11-15T09:15:42;98160.83;;;7.15;100.00
64628;BME280;59036;50.960;0.314;2022-11-15T09:18:09;98140.67;;;7.32;100.00
64628;BME280;59036;50.960;0.314;2022-11-15T09:20:36;98153.08;;;6.80;100.00
64628;BME280;59036;50.960;0.314;2022-11-15T09:23:04;98145.01;;;7.13;100.00
64628;BME280;59036;50.960;0.314;2022-11-15T09:25:32;98142.78;;;7.19;100.00
64628;BME280;59036;50.960;0.314;2022-11-15T09:27:59;98136.30;;;7.19;100.00
64628;BME280;59036;50.960;0.314;2022-11-15T09:30:26;98132.23;;;7.21;100.00
64628;BME280;59036;50.960;0.314;2022-11-15T09:32:53;98126.07;;;7.33;100.00
64628;BME280;59036;50.960;0.314;2022-11-15T09:35:21;98109.17;;;7.26;100.00
64628;BME280;59036;50.960;0.314;2022-11-15T09:37:47;98118.04;;;7.25;100.00
64628;BME280;59036;50.960;0.314;2022-11-15T09:40:16;98114.69;;;7.19;100.00
64628;BME280;59036;50.960;0.314;2022-11-15T09:42:52;98118.42;;;7.30;100.00
64628;BME280;59036;50.960;0.314;2022-11-15T09:45:28;98120.13;;;7.36;100.00
64628;BME280;59036;50.960;0.314;2022-11-15T09:48:17;98108.27;;;7.36;100.00
64628;BME280;59036;50.960;0.314;2022-11-15T09:50:51;98123.01;;;7.24;100.00
64628;BME280;59036;50.960;0.314;2022-11-15T09:53:24;98117.55;;;6.97;100.00
64628;BME280;59036;50.960;0.314;2022-11-15T09:55:55;98111.56;;;7.13;100.00
64628;BME280;59036;50.960;0.314;2022-11-15T09:58:30;98113.74;;;7.35;100.00
64628;BME280;59036;50.960;0.314;2022-11-15T10:01:02;98103.26;;;7.33;100.00
64628;BME280;59036;50.960;0.314;2022-11-15T10:03:34;98086.40;;;7.47;100.00
64628;BME280;59036;50.960;0.314;2022-11-15T10:06:05;98098.24;;;7.35;100.00
64628;BME280;59036;50.960;0.314;2022-11-15T10:08:46;98101.84;;;6.97;100.00
64628;BME280;59036;50.960;0.314;2022-11-15T10:11:18;98092.68;;;7.22;100.00
64628;BME280;59036;50.960;0.314;2022-11-15T10:13:48;98088.55;;;7.21;100.00
64628;BME280;59036;50.960;0.314;2022-11-15T10:16:35;98093.04;;;7.20;100.00
64628;BME280;59036;50.960;0.314;2022-11-15T10:19:12;98065.62;;;7.32;100.00
64628;BME280;59036;50.960;0.314;2022-11-15T10:21:51;98078.27;;;7.08;100.00
64628;BME280;59036;50.960;0.314;2022-11-15T10:24:25;98070.80;;;7.39;100.00
64628;BME280;59036;50.960;0.314;2022-11-15T10:26:53;98069.86;;;7.39;100.00
64628;BME280;59036;50.960;0.314;2022-11-15T10:29:21;98051.56;;;7.26;100.00
64628;BME280;59036;50.960;0.314;2022-11-15T10:31:49;98046.01;;;7.26;100.00
64628;BME280;59036;50.960;0.314;2022-11-15T10:34:18;98058.69;;;7.39;100.00
64628;BME280;59036;50.960;0.314;2022-11-15T10:36:46;98053.86;;;7.43;100.00
64628;BME280;59036;50.960;0.314;2022-11-15T10:39:14;98047.45;;;7.40;100.00
64628;BME280;59036;50.960;0.314;2022-11-15T10:41:42;98046.82;;;7.35;100.00
64628;BME280;59036;50.960;0.314;2022-11-15T10:44:21;98050.00;;;7.36;100.00
64628;BME280;59036;50.960;0.314;2022-11-15T10:47:05;98035.06;;;7.55;100.00
64628;BME280;59036;50.960;0.314;2022-11-15T10:49:34;98038.35;;;7.20;100.00
64628;BME280;59036;50.960;0.314;2022-11-15T10:52:12;98002.87;;;7.40;100.00
64628;BME280;59036;50.960;0.314;2022-11-15T10:54:43;97997.28;;;7.29;100.00
64628;BME280;59036;50.960;0.314;2022-11-15T10:57:14;97992.96;;;7.40;100.00
64628;BME280;59036;50.960;0.314;2022-11-15T10:59:46;97976.95;;;7.33;100.00
64628;BME280;59036;50.960;0.314;2022-11-15T11:02:32;97970.83;;;7.38;100.00
64628;BME280;59036;50.960;0.314;2022-11-15T11:05:03;97973.90;;;7.42;100.00
64628;BME280;59036;50.960;0.314;2022-11-15T11:07:34;97967.22;;;7.41;100.00
64628;BME280;59036;50.960;0.314;2022-11-15T11:10:05;97978.99;;;7.45;100.00
64628;BME280;59036;50.960;0.314;2022-11-15T11:12:43;97947.98;;;7.53;100.00
64628;BME280;59036;50.960;0.314;2022-11-15T11:15:12;97950.76;;;7.39;100.00
64628;BME280;59036;50.960;0.314;2022-11-15T11:17:53;97945.86;;;7.35;100.00
64628;BME280;59036;50.960;0.314;2022-11-15T11:20:26;97930.69;;;7.34;100.00
64628;BME280;59036;50.960;0.314;2022-11-15T11:25:53;97935.52;;;7.55;100.00
64628;BME280;59036;50.960;0.314;2022-11-15T11:28:30;97945.31;;;7.37;100.00
64628;BME280;59036;50.960;0.314;2022-11-15T11:31:13;97942.55;;;7.65;100.00
64628;BME280;59036;50.960;0.314;2022-11-15T11:33:47;97915.27;;;7.64;100.00
64628;BME280;59036;50.960;0.314;2022-11-15T11:36:24;97940.50;;;7.67;100.00
64628;BME280;59036;50.960;0.314;2022-11-15T11:39:00;97926.08;;;7.77;100.00
64628;BME280;59036;50.960;0.314;2022-11-15T11:41:45;97904.45;;;7.77;100.00
64628;BME280;59036;50.960;0.314;2022-11-15T11:44:23;97906.32;;;7.82;100.00
64628;BME280;59036;50.960;0.314;2022-11-15T11:46:56;97914.75;;;7.59;100.00
64628;BME280;59036;50.960;0.314;2022-11-15T11:49:31;97906.37;;;7.54;100.00
64628;BME280;59036;50.960;0.314;2022-11-15T11:52:05;97906.93;;;7.72;100.00
64628;BME280;59036;50.960;0.314;2022-11-15T11:54:42;97904.07;;;7.77;100.00
64628;BME280;59036;50.960;0.314;2022-11-15T11:57:20;97871.17;;;7.89;100.00
64628;BME280;59036;50.960;0.314;2022-11-15T11:59:54;97871.61;;;7.68;100.00
64628;BME280;59036;50.960;0.314;2022-11-15T12:02:28;97889.25;;;7.77;100.00
64628;BME280;59036;50.960;0.314;2022-11-15T12:05:03;97891.12;;;7.59;100.00
64628;BME280;59036;50.960;0.314;2022-11-15T12:07:35;97882.93;;;8.14;100.00
64628;BME280;59036;50.960;0.314;2022-11-15T12:10:15;97872.05;;;8.21;100.00
64628;BME280;59036;50.960;0.314;2022-11-15T12:12:50;97866.58;;;7.91;100.00
64628;BME280;59036;50.960;0.314;2022-11-15T12:15:22;97867.46;;;7.97;100.00
64628;BME280;59036;50.960;0.314;2022-11-15T12:17:50;97860.79;;;8.01;100.00
64628;BME280;59036;50.960;0.314;2022-11-15T12:20:19;97846.18;;;8.02;100.00
64628;BME280;59036;50.960;0.314;2022-11-15T12:22:53;97829.16;;;7.90;100.00
64628;BME280;59036;50.960;0.314;2022-11-15T12:25:24;97857.91;;;7.96;100.00
64628;BME280;59036;50.960;0.314;2022-11-15T12:27:56;97853.35;;;7.89;100.00
64628;BME280;59036;50.960;0.314;2022-11-15T12:30:27;97848.53;;;7.91;100.00
64628;BME280;59036;50.960;0.314;2022-11-15T12:32:59;97844.37;;;7.76;100.00
64628;BME280;59036;50.960;0.314;2022-11-15T12:35:32;97842.89;;;7.74;100.00
64628;BME280;59036;50.960;0.314;2022-11-15T12:38:01;97845.99;;;7.97;100.00
64628;BME280;59036;50.960;0.314;2022-11-15T12:40:31;97819.60;;;7.97;100.00
64628;BME280;59036;50.960;0.314;2022-11-15T12:43:03;97819.29;;;8.43;100.00
64628;BME280;59036;50.960;0.314;2022-11-15T12:45:32;97832.44;;;8.18;100.00
64628;BME280;59036;50.960;0.314;2022-11-15T12:49:09;97814.07;;;8.00;100.00
64628;BME280;59036;50.960;0.314;2022-11-15T12:52:09;97827.32;;;8.20;100.00
64628;BME280;59036;50.960;0.314;2022-11-15T12:54:57;97830.31;;;8.26;100.00
64628;BME280;59036;50.960;0.314;2022-11-15T12:57:34;97814.01;;;8.20;100.00
64628;BME280;59036;50.960;0.314;2022-11-15T13:00:36;97810.66;;;8.13;100.00
64628;BME280;59036;50.960;0.314;2022-11-15T13:04:08;97807.40;;;8.43;100.00
64628;BME280;59036;50.960;0.314;2022-11-15T13:06:39;97792.13;;;8.36;100.00
64628;BME280;59036;50.960;0.314;2022-11-15T13:09:51;97794.90;;;8.32;100.00
64628;BME280;59036;50.960;0.314;2022-11-15T13:12:53;97813.71;;;8.67;100.00
64628;BME280;59036;50.960;0.314;2022-11-15T13:15:55;97793.39;;;8.59;100.00
64628;BME280;59036;50.960;0.314;2022-11-15T13:18:30;97797.09;;;8.71;100.00
64628;BME280;59036;50.960;0.314;2022-11-15T13:20:58;97794.78;;;8.79;100.00
64628;BME280;59036;50.960;0.314;2022-11-15T13:23:25;97796.11;;;8.34;100.00